Lincoln University, Pennsylvania
Current Conditions -  °F | °C
As of 5:15 AM on Tuesday 27 Jan 2015 (Local Time) from KMQS Reporting Station
Light Snow Light Snow  
Wind Chill: 19°   Ceiling: 2800
Heat Index: 27°   Visibility: 7mi
Dew Point: 23°   Wind: 7mph
Humidity: 86%   Direction: 350°N
Pressure: 29.71"   Gusts: NA
Location:  39.8°N, 75.92°W
Report Text: KMQS 271015Z AUTO 35006KT 7SM -SN OVC028 M03/M05 A2971 RMK AO2
Loading
Personal Weather Stations






























Interactive Weather Map New forecast layout! Learn more

10-Day Weather Forecast

Advertisements
Track Severe Weather on mobile